createdAt,value
2022-09-16T00:00:30.861Z,72.90
2022-09-16T00:03:00.080Z,72.90
2022-09-16T00:05:27.954Z,72.90
2022-09-16T00:07:56.362Z,72.90
2022-09-16T00:10:24.401Z,72.90
2022-09-16T00:12:52.335Z,73.10
2022-09-16T00:15:20.621Z,73.20
2022-09-16T00:17:49.258Z,73.30
2022-09-16T00:20:18.603Z,73.40
2022-09-16T00:22:46.421Z,73.50
2022-09-16T00:25:16.695Z,73.50
2022-09-16T00:27:44.625Z,73.40
2022-09-16T00:30:12.718Z,73.80
2022-09-16T00:32:40.521Z,73.80
2022-09-16T00:35:08.933Z,73.90
2022-09-16T00:37:38.104Z,74.10
2022-09-16T00:40:06.566Z,74.20
2022-09-16T00:42:37.856Z,74.20
2022-09-16T00:45:06.579Z,74.50
2022-09-16T00:47:37.084Z,74.60
2022-09-16T00:50:08.080Z,74.60
2022-09-16T00:52:36.322Z,74.70
2022-09-16T00:55:08.285Z,74.90
2022-09-16T00:57:36.895Z,74.80
2022-09-16T01:00:05.825Z,74.80
2022-09-16T01:02:33.779Z,74.90
2022-09-16T01:05:03.383Z,74.80
2022-09-16T01:07:32.691Z,74.80
2022-09-16T01:10:00.689Z,74.70
2022-09-16T01:12:30.568Z,74.80
2022-09-16T01:14:58.725Z,74.70
2022-09-16T01:17:35.998Z,74.80
2022-09-16T01:20:23.308Z,75.10
2022-09-16T01:23:01.174Z,75.10
2022-09-16T01:25:33.960Z,75.30
2022-09-16T01:28:13.655Z,75.30
2022-09-16T01:30:49.882Z,75.30
2022-09-16T01:33:21.033Z,75.40
2022-09-16T01:35:55.520Z,75.30
2022-09-16T01:38:27.795Z,74.90
2022-09-16T01:41:02.408Z,74.70
2022-09-16T01:43:33.509Z,74.30
2022-09-16T01:46:04.364Z,74.00
2022-09-16T01:48:35.214Z,73.30
2022-09-16T01:51:05.152Z,73.70
2022-09-16T01:53:34.468Z,74.30
2022-09-16T01:56:05.566Z,74.80
2022-09-16T01:58:36.547Z,75.00
2022-09-16T02:01:07.754Z,75.00
2022-09-16T02:03:37.589Z,74.90
2022-09-16T02:06:07.775Z,75.00
2022-09-16T02:08:37.503Z,74.90
2022-09-16T02:11:07.315Z,74.90
2022-09-16T02:13:36.547Z,75.00
2022-09-16T02:16:09.227Z,75.10
2022-09-16T02:18:40.608Z,75.20
2022-09-16T02:21:10.648Z,74.70
2022-09-16T02:23:40.347Z,75.10
2022-09-16T02:26:10.458Z,75.00
2022-09-16T02:28:39.710Z,74.80
2022-09-16T02:31:09.638Z,75.00
2022-09-16T02:33:39.914Z,74.80
2022-09-16T02:36:08.563Z,74.80
2022-09-16T02:38:39.823Z,74.90
2022-09-16T02:41:09.652Z,75.10
2022-09-16T02:43:38.674Z,74.90
2022-09-16T02:46:09.501Z,74.90
2022-09-16T02:48:43.470Z,74.90
2022-09-16T02:51:16.913Z,74.40
2022-09-16T02:53:46.193Z,74.40
2022-09-16T02:56:18.434Z,73.90
2022-09-16T02:58:46.715Z,74.20
2022-09-16T03:01:14.828Z,73.20
2022-09-16T03:03:44.039Z,73.40
2022-09-16T03:06:15.610Z,73.00
2022-09-16T03:08:44.549Z,73.00
2022-09-16T03:11:18.530Z,73.20
2022-09-16T03:13:49.563Z,72.90
2022-09-16T03:16:18.607Z,73.00
2022-09-16T03:18:52.267Z,72.80
2022-09-16T03:21:24.513Z,72.80
2022-09-16T03:23:57.763Z,72.80
2022-09-16T03:26:31.536Z,72.90
2022-09-16T03:29:04.382Z,72.80
2022-09-16T03:31:33.738Z,73.00
2022-09-16T03:34:06.943Z,73.00
2022-09-16T03:36:36.939Z,72.90
2022-09-16T03:39:05.691Z,72.50
2022-09-16T03:41:34.679Z,72.90
2022-09-16T03:44:04.240Z,73.50
2022-09-16T03:46:32.620Z,73.80
2022-09-16T03:49:00.677Z,74.10
2022-09-16T03:51:29.905Z,74.50
2022-09-16T03:53:57.703Z,74.60
2022-09-16T03:56:25.829Z,74.80
2022-09-16T03:58:53.694Z,74.80
2022-09-16T04:01:21.786Z,74.90
2022-09-16T04:03:49.670Z,75.00
2022-09-16T04:06:17.497Z,74.90
2022-09-16T04:08:50.598Z,75.00
2022-09-16T04:11:18.612Z,75.30
2022-09-16T04:13:46.390Z,75.30
2022-09-16T04:16:19.811Z,75.30
2022-09-16T04:18:48.094Z,75.30
2022-09-16T04:21:16.419Z,75.30
2022-09-16T04:23:44.532Z,75.70
2022-09-16T04:26:13.759Z,76.00
2022-09-16T04:28:41.619Z,76.10
2022-09-16T04:31:11.904Z,76.20
2022-09-16T04:33:40.143Z,76.30
2022-09-16T04:36:09.539Z,76.20
2022-09-16T04:38:37.636Z,76.40
2022-09-16T04:41:06.447Z,76.30
2022-09-16T04:43:35.712Z,76.40
2022-09-16T04:46:03.630Z,76.40
2022-09-16T04:48:31.773Z,76.30
2022-09-16T04:51:03.347Z,76.40
2022-09-16T04:53:31.270Z,76.40
2022-09-16T04:56:03.846Z,76.60
2022-09-16T04:58:31.734Z,76.70
2022-09-16T05:01:05.769Z,76.80
2022-09-16T05:03:34.063Z,76.90
2022-09-16T05:06:05.721Z,77.20
2022-09-16T05:08:35.212Z,77.30
2022-09-16T05:11:07.604Z,77.40
2022-09-16T05:13:35.878Z,77.30
2022-09-16T05:16:05.035Z,77.50
2022-09-16T05:18:34.444Z,77.60
2022-09-16T05:21:02.765Z,77.60
2022-09-16T05:23:31.004Z,77.70
2022-09-16T05:26:03.490Z,77.70
2022-09-16T05:28:31.679Z,77.70
2022-09-16T05:31:08.509Z,77.70
2022-09-16T05:33:38.336Z,77.70
2022-09-16T05:36:07.029Z,77.60
2022-09-16T05:38:35.068Z,77.60
2022-09-16T05:41:03.461Z,77.50
2022-09-16T05:43:31.318Z,77.50
2022-09-16T05:45:59.352Z,77.50
2022-09-16T05:48:27.471Z,77.20
2022-09-16T05:50:58.043Z,76.70
2022-09-16T05:53:26.434Z,76.60
2022-09-16T05:55:57.885Z,76.60
2022-09-16T05:58:26.252Z,76.10
2022-09-16T06:00:59.090Z,76.20
2022-09-16T06:03:27.793Z,75.90
2022-09-16T06:06:01.687Z,75.80
2022-09-16T06:08:29.622Z,75.60
2022-09-16T06:10:57.444Z,74.00
2022-09-16T06:13:25.286Z,72.40
2022-09-16T06:15:54.825Z,70.40
2022-09-16T06:18:23.319Z,69.30
2022-09-16T06:20:51.302Z,68.10
2022-09-16T06:23:20.897Z,68.10
2022-09-16T06:25:48.846Z,68.90
2022-09-16T06:28:16.816Z,69.00
2022-09-16T06:30:44.678Z,68.90
2022-09-16T06:33:13.002Z,69.10
2022-09-16T06:35:40.880Z,69.10
2022-09-16T06:38:08.734Z,69.60
2022-09-16T06:40:37.934Z,69.70
2022-09-16T06:43:05.766Z,69.40
2022-09-16T06:45:33.693Z,68.80
2022-09-16T06:48:01.887Z,67.90
2022-09-16T06:50:30.093Z,66.70
2022-09-16T06:52:57.941Z,67.20
2022-09-16T06:55:25.948Z,67.10
2022-09-16T06:57:57.350Z,68.00
2022-09-16T07:00:25.314Z,68.10
2022-09-16T07:02:53.322Z,68.10
2022-09-16T07:05:21.310Z,68.70
2022-09-16T07:07:49.441Z,69.00
2022-09-16T07:10:17.407Z,68.90
2022-09-16T07:12:45.246Z,68.90
2022-09-16T07:15:14.618Z,68.30
2022-09-16T07:17:42.562Z,67.90
2022-09-16T07:20:10.868Z,67.60
2022-09-16T07:22:38.782Z,67.60
2022-09-16T07:25:07.037Z,67.40
2022-09-16T07:27:35.417Z,66.60
2022-09-16T07:30:08.220Z,65.50
2022-09-16T07:32:38.459Z,65.00
2022-09-16T07:35:06.592Z,64.80
2022-09-16T07:37:38.322Z,65.40
2022-09-16T07:40:10.791Z,64.70
2022-09-16T07:42:38.778Z,65.00
2022-09-16T07:45:07.307Z,65.10
2022-09-16T07:47:35.528Z,64.30
2022-09-16T07:50:04.941Z,65.00
2022-09-16T07:52:32.888Z,64.90
2022-09-16T07:55:00.781Z,65.00
2022-09-16T07:57:28.661Z,66.00
2022-09-16T07:59:57.903Z,65.90
2022-09-16T08:02:25.913Z,66.20
2022-09-16T08:04:53.790Z,65.60
2022-09-16T08:07:23.398Z,62.70
2022-09-16T08:09:51.755Z,63.00
2022-09-16T08:12:21.657Z,63.00
2022-09-16T08:14:49.643Z,64.00
2022-09-16T08:17:17.624Z,64.10
2022-09-16T08:19:45.704Z,63.70
2022-09-16T08:22:13.825Z,60.20
2022-09-16T08:24:43.013Z,56.40
2022-09-16T08:27:10.993Z,51.30
2022-09-16T08:29:38.810Z,51.40
2022-09-16T08:32:06.804Z,52.60
2022-09-16T08:34:34.744Z,53.90
2022-09-16T08:37:02.609Z,53.40
2022-09-16T08:39:30.514Z,49.50
2022-09-16T08:42:04.916Z,46.60
2022-09-16T08:44:39.024Z,45.30
2022-09-16T08:47:10.713Z,45.20
2022-09-16T08:49:42.506Z,45.80
2022-09-16T08:52:15.341Z,48.20
2022-09-16T08:54:45.822Z,48.10
2022-09-16T08:57:17.025Z,47.90
2022-09-16T08:59:47.578Z,49.70
2022-09-16T09:02:38.361Z,50.10
2022-09-16T09:05:14.817Z,48.60
2022-09-16T09:07:49.122Z,44.30
2022-09-16T09:10:21.153Z,43.70
2022-09-16T09:12:55.282Z,42.90
2022-09-16T09:15:30.659Z,41.30
2022-09-16T09:18:06.029Z,39.70
2022-09-16T09:20:40.786Z,38.40
2022-09-16T09:23:18.563Z,37.60
2022-09-16T09:25:50.902Z,37.60
2022-09-16T09:28:27.749Z,38.80
2022-09-16T09:30:59.326Z,37.10
2022-09-16T09:33:46.027Z,37.50
2022-09-16T09:36:21.732Z,37.70
2022-09-16T09:38:53.531Z,39.00
2022-09-16T09:41:25.174Z,38.60
2022-09-16T09:43:56.687Z,37.90
2022-09-16T09:46:26.507Z,38.20
2022-09-16T09:48:56.270Z,38.80
2022-09-16T09:51:25.649Z,39.70
2022-09-16T09:53:54.915Z,40.90
2022-09-16T09:56:24.909Z,41.10
2022-09-16T09:58:58.644Z,40.60
2022-09-16T10:01:26.603Z,40.40
2022-09-16T10:03:56.076Z,36.90
2022-09-16T10:06:26.526Z,38.10
2022-09-16T10:08:57.735Z,39.70
2022-09-16T10:11:27.109Z,42.00
2022-09-16T10:13:57.899Z,43.10
2022-09-16T10:16:27.592Z,44.00
2022-09-16T10:18:57.672Z,45.60
2022-09-16T10:21:26.665Z,47.00
2022-09-16T10:23:55.177Z,47.40
2022-09-16T10:26:24.131Z,46.40
2022-09-16T10:28:57.306Z,45.90
2022-09-16T10:31:29.171Z,45.90
2022-09-16T10:34:00.983Z,45.10
2022-09-16T10:36:30.573Z,46.90
2022-09-16T10:39:03.942Z,47.50
2022-09-16T10:41:34.339Z,48.40
2022-09-16T10:44:05.059Z,54.60
2022-09-16T10:46:33.471Z,52.00
2022-09-16T10:49:02.990Z,52.30
2022-09-16T10:51:31.414Z,51.80
2022-09-16T10:54:00.217Z,53.30
2022-09-16T10:56:30.099Z,52.40
2022-09-16T10:59:06.414Z,52.60
2022-09-16T11:01:42.630Z,52.50
2022-09-16T11:04:22.504Z,52.00
2022-09-16T11:06:57.065Z,51.90
2022-09-16T11:09:27.648Z,49.80
2022-09-16T11:12:00.560Z,50.30
2022-09-16T11:14:36.237Z,49.70
2022-09-16T11:17:11.316Z,49.40
2022-09-16T11:19:44.238Z,49.00
2022-09-16T11:22:18.547Z,47.30
2022-09-16T11:24:50.794Z,47.70
2022-09-16T11:27:23.203Z,44.90
2022-09-16T11:29:58.553Z,42.90
2022-09-16T11:32:31.732Z,43.60
2022-09-16T11:35:17.626Z,42.90
2022-09-16T11:37:50.207Z,42.70
2022-09-16T11:40:23.744Z,43.20
2022-09-16T11:42:58.064Z,43.70
2022-09-16T11:45:33.691Z,44.90
2022-09-16T11:48:21.189Z,46.10
2022-09-16T11:50:51.820Z,46.40
2022-09-16T11:53:37.252Z,46.40
2022-09-16T11:56:08.799Z,47.50
2022-09-16T11:58:39.422Z,47.80
2022-09-16T12:01:12.974Z,48.20
2022-09-16T12:03:45.878Z,50.00
2022-09-16T12:06:16.704Z,48.20
2022-09-16T12:08:56.015Z,47.50
2022-09-16T12:11:27.212Z,45.60
2022-09-16T12:14:19.887Z,46.40
2022-09-16T12:16:52.478Z,44.40
2022-09-16T12:19:23.521Z,45.50
2022-09-16T12:21:57.737Z,45.90
2022-09-16T12:24:32.046Z,48.20
2022-09-16T12:27:04.214Z,53.50
2022-09-16T12:29:38.053Z,53.30
2022-09-16T12:32:10.041Z,55.20
2022-09-16T12:34:39.383Z,53.10
2022-09-16T12:37:12.313Z,54.00
2022-09-16T12:39:40.227Z,54.60
2022-09-16T12:42:20.059Z,55.20
2022-09-16T12:44:53.068Z,55.70
2022-09-16T12:47:35.623Z,53.60
2022-09-16T12:50:18.384Z,49.50
2022-09-16T12:53:00.517Z,46.70
2022-09-16T12:55:35.270Z,44.90
2022-09-16T12:58:11.281Z,43.70
2022-09-16T13:00:42.618Z,41.20
2022-09-16T13:03:15.951Z,39.50
2022-09-16T13:05:46.418Z,37.20
2022-09-16T13:08:21.082Z,36.30
2022-09-16T13:11:05.924Z,35.60
2022-09-16T13:13:47.488Z,35.70
2022-09-16T13:16:15.437Z,37.30
2022-09-16T13:18:47.256Z,38.40
2022-09-16T13:21:22.461Z,40.80
2022-09-16T13:23:53.383Z,41.40
2022-09-16T13:26:21.400Z,42.80
2022-09-16T13:28:49.565Z,42.50
2022-09-16T13:31:18.993Z,41.60
2022-09-16T13:33:51.580Z,42.40
2022-09-16T13:36:32.683Z,44.50
2022-09-16T13:39:01.943Z,45.10
2022-09-16T13:41:31.779Z,46.50
2022-09-16T13:43:59.771Z,44.30
2022-09-16T13:46:29.546Z,44.60
2022-09-16T13:49:01.474Z,45.00
2022-09-16T13:51:33.975Z,45.20
2022-09-16T13:54:04.361Z,46.30
2022-09-16T13:56:38.590Z,47.50
2022-09-16T13:59:15.879Z,49.00
2022-09-16T14:01:59.020Z,53.30
2022-09-16T14:04:33.331Z,56.10
2022-09-16T14:07:07.034Z,57.80
2022-09-16T14:09:45.976Z,63.00
2022-09-16T14:12:17.966Z,66.90
2022-09-16T14:14:47.702Z,67.10
2022-09-16T14:17:17.947Z,67.60
2022-09-16T14:19:49.060Z,64.30
2022-09-16T14:22:17.955Z,63.90
2022-09-16T14:24:46.617Z,63.90
2022-09-16T14:27:21.845Z,63.00
2022-09-16T14:29:57.058Z,63.10
2022-09-16T14:32:25.867Z,62.20
2022-09-16T14:34:55.929Z,62.70
2022-09-16T14:37:25.726Z,63.30
2022-09-16T14:39:55.479Z,62.30
2022-09-16T14:42:24.366Z,58.90
2022-09-16T14:44:53.799Z,57.60
2022-09-16T14:47:39.714Z,58.70
2022-09-16T14:50:16.120Z,58.20
2022-09-16T14:52:53.538Z,58.00
2022-09-16T14:55:22.732Z,56.90
2022-09-16T14:57:50.640Z,57.00
2022-09-16T15:00:19.266Z,57.30
2022-09-16T15:02:49.918Z,59.10
2022-09-16T15:05:22.506Z,58.80
2022-09-16T15:08:12.574Z,60.70
2022-09-16T15:10:55.240Z,61.80
2022-09-16T15:13:25.146Z,61.00
2022-09-16T15:15:55.731Z,61.60
2022-09-16T15:18:26.982Z,63.90
2022-09-16T15:21:00.800Z,65.50
2022-09-16T15:23:29.521Z,67.00
2022-09-16T15:26:00.046Z,67.70
2022-09-16T15:28:28.148Z,67.30
2022-09-16T15:30:57.559Z,67.20
2022-09-16T15:33:32.436Z,67.00
2022-09-16T15:36:03.415Z,65.80
2022-09-16T15:38:32.026Z,66.40
2022-09-16T15:41:04.324Z,67.00
2022-09-16T15:46:25.117Z,66.60
2022-09-16T15:48:55.768Z,66.60
2022-09-16T15:51:29.331Z,66.70
2022-09-16T15:53:58.743Z,66.70
2022-09-16T15:56:29.565Z,66.70
2022-09-16T15:59:00.612Z,65.40
2022-09-16T16:01:40.997Z,65.70
2022-09-16T16:04:09.698Z,66.10
2022-09-16T16:06:49.723Z,67.00
2022-09-16T16:09:32.499Z,67.40
2022-09-16T16:12:01.790Z,68.10
2022-09-16T16:14:32.191Z,68.80
2022-09-16T16:17:12.793Z,69.10
2022-09-16T16:19:41.646Z,70.20
2022-09-16T16:22:11.437Z,71.60
2022-09-16T16:24:39.556Z,73.50
2022-09-16T16:27:08.385Z,74.50
2022-09-16T16:29:36.140Z,74.90
2022-09-16T16:32:06.093Z,75.30
2022-09-16T16:34:34.518Z,75.70
2022-09-16T16:37:02.278Z,75.30
2022-09-16T16:39:31.534Z,75.30
2022-09-16T16:41:59.472Z,75.50
2022-09-16T16:44:28.405Z,75.10
2022-09-16T16:46:56.903Z,75.60
2022-09-16T16:49:30.138Z,75.50
2022-09-16T16:51:58.734Z,75.10
2022-09-16T16:54:26.990Z,74.90
2022-09-16T16:56:57.232Z,75.10
2022-09-16T16:59:25.224Z,74.70
2022-09-16T17:01:54.247Z,74.00
2022-09-16T17:04:22.854Z,73.50
2022-09-16T17:07:08.281Z,73.80
2022-09-16T17:09:40.005Z,74.10
2022-09-16T17:12:10.221Z,74.70
2022-09-16T17:14:38.809Z,75.40
2022-09-16T17:17:06.899Z,76.10
2022-09-16T17:19:35.123Z,76.50
2022-09-16T17:22:03.059Z,76.90
2022-09-16T17:24:31.114Z,77.20
2022-09-16T17:26:59.146Z,77.60
2022-09-16T17:29:28.410Z,77.80
2022-09-16T17:31:57.196Z,78.10
2022-09-16T17:34:26.332Z,78.30
2022-09-16T17:36:55.164Z,78.40
2022-09-16T17:39:23.169Z,78.70
2022-09-16T17:41:51.558Z,78.90
2022-09-16T17:44:20.451Z,79.00
2022-09-16T17:46:50.542Z,79.10
2022-09-16T17:49:20.122Z,79.10
2022-09-16T17:51:48.242Z,79.20
2022-09-16T17:54:16.383Z,79.30
2022-09-16T17:56:44.335Z,79.40
2022-09-16T17:59:12.812Z,79.70
2022-09-16T18:01:40.874Z,79.80
2022-09-16T18:04:10.420Z,80.00
2022-09-16T18:06:40.993Z,80.10
2022-09-16T18:09:08.988Z,80.10
2022-09-16T18:11:36.940Z,80.10
2022-09-16T18:14:06.454Z,80.20
2022-09-16T18:16:34.559Z,80.40
2022-09-16T18:19:02.930Z,80.60
2022-09-16T18:21:32.484Z,80.60
2022-09-16T18:24:03.472Z,80.50
2022-09-16T18:26:31.901Z,80.40
2022-09-16T18:29:10.367Z,80.20
2022-09-16T18:31:39.903Z,80.10
2022-09-16T18:34:08.026Z,79.90
2022-09-16T18:36:39.655Z,79.90
2022-09-16T18:39:08.411Z,79.60
2022-09-16T18:41:37.171Z,79.40
2022-09-16T18:44:07.372Z,79.40
2022-09-16T18:46:36.420Z,79.50
2022-09-16T18:49:06.312Z,79.70
2022-09-16T18:51:37.650Z,79.80
2022-09-16T18:54:06.507Z,79.70
2022-09-16T18:56:35.110Z,79.60
2022-09-16T19:01:52.924Z,79.40
2022-09-16T19:04:22.358Z,79.30
2022-09-16T19:06:52.923Z,79.30
2022-09-16T19:09:21.709Z,79.40
2022-09-16T19:11:49.858Z,79.60
2022-09-16T19:14:18.045Z,79.70
2022-09-16T19:16:46.508Z,79.90
2022-09-16T19:19:15.612Z,80.00
2022-09-16T19:21:43.896Z,80.20
2022-09-16T19:24:14.857Z,80.40
2022-09-16T19:26:43.349Z,80.30
2022-09-16T19:29:11.755Z,80.20
2022-09-16T19:31:40.783Z,80.20
2022-09-16T19:34:09.303Z,80.20
2022-09-16T19:36:37.751Z,80.40
2022-09-16T19:39:06.029Z,80.50
2022-09-16T19:41:35.912Z,80.60
2022-09-16T19:44:05.561Z,80.80
2022-09-16T19:46:34.487Z,81.00
2022-09-16T19:49:02.767Z,81.00
2022-09-16T19:51:31.369Z,80.90
2022-09-16T19:54:00.683Z,80.90
2022-09-16T19:56:29.959Z,81.10
2022-09-16T19:59:00.449Z,81.30
2022-09-16T20:01:29.344Z,81.40
2022-09-16T20:03:57.352Z,81.50
2022-09-16T20:06:26.311Z,81.30
2022-09-16T20:08:55.369Z,81.20
2022-09-16T20:11:24.565Z,81.20
2022-09-16T20:13:54.306Z,81.20
2022-09-16T20:16:25.659Z,81.10
2022-09-16T20:18:54.353Z,81.00
2022-09-16T20:21:23.475Z,80.90
2022-09-16T20:23:51.932Z,80.70
2022-09-16T20:26:20.774Z,80.60
2022-09-16T20:28:50.036Z,80.50
2022-09-16T20:31:21.218Z,80.40
2022-09-16T20:33:51.580Z,80.30
2022-09-16T20:36:20.160Z,80.10
2022-09-16T20:38:48.910Z,79.90
2022-09-16T20:41:18.206Z,79.80
2022-09-16T20:43:46.607Z,79.70
2022-09-16T20:46:15.473Z,79.60
2022-09-16T20:48:43.992Z,79.70
2022-09-16T20:51:14.363Z,79.60
2022-09-16T20:53:42.813Z,79.80
2022-09-16T20:56:11.718Z,80.00
2022-09-16T20:58:40.094Z,80.20
2022-09-16T21:01:09.342Z,80.30
2022-09-16T21:03:37.558Z,80.40
2022-09-16T21:06:06.702Z,80.50
2022-09-16T21:08:36.941Z,80.50
2022-09-16T21:11:05.698Z,80.60
2022-09-16T21:13:33.585Z,80.60
2022-09-16T21:16:01.660Z,80.70
2022-09-16T21:18:29.647Z,80.80
2022-09-16T21:21:01.294Z,81.00
2022-09-16T21:23:29.857Z,81.20
2022-09-16T21:26:03.863Z,81.40
2022-09-16T21:28:33.233Z,81.30
2022-09-16T21:31:02.730Z,81.40
2022-09-16T21:33:31.388Z,81.50
2022-09-16T21:35:59.405Z,81.50
2022-09-16T21:38:29.089Z,81.80
2022-09-16T21:40:57.873Z,81.70
2022-09-16T21:43:28.490Z,81.90
2022-09-16T21:45:56.458Z,81.80
2022-09-16T21:48:25.194Z,82.10
2022-09-16T21:50:53.618Z,82.20
2022-09-16T21:53:21.746Z,82.10
2022-09-16T21:55:49.741Z,82.00
2022-09-16T21:58:17.786Z,82.10
2022-09-16T22:00:47.044Z,82.10
2022-09-16T22:03:15.591Z,82.10
2022-09-16T22:05:43.420Z,82.00
2022-09-16T22:08:11.247Z,82.00
2022-09-16T22:10:39.341Z,81.90
2022-09-16T22:13:07.766Z,81.90
2022-09-16T22:15:35.722Z,81.90
2022-09-16T22:18:05.185Z,81.80
2022-09-16T22:20:33.777Z,81.80
2022-09-16T22:23:01.689Z,81.70
2022-09-16T22:25:29.499Z,81.70
2022-09-16T22:27:57.381Z,81.70
2022-09-16T22:30:25.249Z,81.90
2022-09-16T22:32:53.171Z,81.90
2022-09-16T22:35:22.229Z,81.70
2022-09-16T22:37:49.924Z,81.80
2022-09-16T22:40:18.441Z,81.90
2022-09-16T22:42:46.355Z,82.00
2022-09-16T22:45:14.260Z,82.00
2022-09-16T22:47:42.120Z,82.00
2022-09-16T22:50:10.071Z,82.10
2022-09-16T22:52:39.296Z,82.20
2022-09-16T22:55:09.174Z,82.20
2022-09-16T22:57:38.055Z,82.30
2022-09-16T23:00:07.511Z,82.30
2022-09-16T23:02:35.522Z,82.30
2022-09-16T23:05:03.351Z,82.30
2022-09-16T23:07:31.178Z,82.50
2022-09-16T23:10:00.538Z,82.50
2022-09-16T23:12:28.372Z,82.60
2022-09-16T23:14:59.912Z,82.60
2022-09-16T23:17:28.330Z,82.60
2022-09-16T23:19:56.192Z,82.50
2022-09-16T23:22:24.121Z,82.50
2022-09-16T23:24:52.101Z,82.40
2022-09-16T23:27:21.242Z,82.30
2022-09-16T23:29:49.195Z,82.30
2022-09-16T23:32:17.100Z,82.30
2022-09-16T23:34:44.991Z,82.50
2022-09-16T23:37:12.858Z,82.70
2022-09-16T23:39:40.696Z,83.10
2022-09-16T23:42:08.714Z,83.10
2022-09-16T23:44:38.008Z,83.20
2022-09-16T23:47:06.913Z,83.30
2022-09-16T23:49:34.721Z,83.40
2022-09-16T23:52:02.786Z,83.30
2022-09-16T23:54:30.630Z,83.30
2022-09-16T23:56:58.436Z,83.30
2022-09-16T23:59:26.442Z,83.30
